Hoagland, IN (46745)

9:50 AM EDT on October 02, 2014 (GMT -0400)
Rosene Farms, Hoagland, In | Change Station
CLOSE
Current Station
Personal Weather Station
Location: Monroeville, IN
Elevation: 804 ft
Nearby Weather Stations

Elev 804 ft 40.95 °N, 84.95 °W | Updated 12 minutes ago

Mostly Cloudy
Mostly Cloudy
61.6 °F
Feels Like 61.6 °F
N
2.0
Wind Variable Wind from SW
Gusts 7.0 mph

Today
High -- | Low -- °F
--% Chance of Precip.
Yesterday
High -- | Low -- °F
Precip. -- in
7:37 AM 7:20 PM
First Quarter, 59% visible
Pressure 30.00 in
Visibility 8.0 miles
Clouds Scattered Clouds 6500 ft
Mostly Cloudy 8500 ft
Overcast 15000 ft
Dew Point 56 °F
Humidity 81%
Rainfall 0.00 in
Snow Depth Not available.
UV 0 out of 12
Pollen 3.70 out of 12
PM2.5 Good
Flu Activity Not available.
METAR KFWA 021254Z 13004KT 8SM SCT065 BKN085 OVC150 14/11 A3000 RMK SLP158 T01440111

More Conditions Fewer Conditions

Pressure 30.00 in
Visibility 8.0 miles
Clouds Scattered Clouds 6500 ft
Mostly Cloudy 8500 ft
Overcast 15000 ft
Dew Point 56 °F
Humidity 81%
Rainfall 0.00 in
Snow Depth Not available.
UV 0 out of 12
Pollen 3.70 out of 12
PM2.5 Good
Flu Activity Not available.
METAR KFWA 021254Z 13004KT 8SM SCT065 BKN085 OVC150 14/11 A3000 RMK SLP158 T01440111

More Conditions Fewer Conditions

10-Day Weather Forecast

Almanac

Astronomy

Oct. 02, 2014 Rise Set
Actual Time 7:37 AM EDT 7:20 PM EDT
Civil Twilight 7:10 AM EDT 7:47 PM EDT
Nautical Twilight 6:38 AM EDT 8:19 PM EDT
Astronomical Twilight 6:06 AM EDT 8:51 PM EDT
Moon 3:28 PM EDT 12:51 AM EDT
Length of Visible Light 12h 37m
Length of Day
11h 42m
Tomorrow will be 2m 42s shorter.
First Quarter, 59% of the Moon is Illuminated
Today
First Quarter
Oct 8
Full
Oct 15
Last Quarter
Oct 23
New
Oct 30
First Quarter

Today's Extremes

State Highs State Lows

Community

WunderPhotos

Upload Photos

1,758,245 photos uploaded!

WunderBlogs® & News

Nearby

Air Quality

  Air Quality AQ Index Pollutant
Yesterday Good
PM2.5
Current Good
PM2.5
Thursday Moderate
PM2.5
Thursday Good
OZONE

Snow Depth

Station Depth Elevation
No new snow has been reported.

Earthquake Activity

City Distance Mag. Time & Date
No recent earthquake activity has been reported nearby.
Minimum magnitude displayed is 2.5.

Coastal Water Temperatures

Place Temperature
No Stations Reporting

Nearby Weather Stations